createdAt,value
2018-08-11T00:01:07.780Z,13.48
2018-08-11T00:03:36.337Z,13.45
2018-08-11T00:06:04.944Z,13.25
2018-08-11T00:08:33.467Z,13.40
2018-08-11T00:11:02.036Z,13.51
2018-08-11T00:13:30.551Z,13.22
2018-08-11T00:15:59.165Z,13.16
2018-08-11T00:18:27.696Z,13.40
2018-08-11T00:20:56.283Z,13.79
2018-08-11T00:23:24.844Z,13.76
2018-08-11T00:25:53.430Z,13.52
2018-08-11T00:28:23.048Z,13.43
2018-08-11T00:30:54.412Z,13.58
2018-08-11T00:33:22.982Z,13.53
2018-08-11T00:35:51.801Z,13.42
2018-08-11T00:38:20.331Z,13.73
2018-08-11T00:40:49.024Z,13.75
2018-08-11T00:43:17.607Z,13.58
2018-08-11T00:45:46.380Z,13.70
2018-08-11T00:48:15.174Z,13.68
2018-08-11T00:50:43.942Z,13.63
2018-08-11T00:53:12.626Z,13.84
2018-08-11T00:55:41.328Z,13.90
2018-08-11T00:58:09.952Z,14.09
2018-08-11T01:00:38.576Z,13.90
2018-08-11T01:03:07.164Z,14.11
2018-08-11T01:05:35.873Z,13.99
2018-08-11T01:08:04.448Z,14.07
2018-08-11T01:10:33.075Z,14.17
2018-08-11T01:13:01.604Z,14.00
2018-08-11T01:15:30.214Z,13.95
2018-08-11T01:17:58.778Z,14.10
2018-08-11T01:20:27.423Z,14.07
2018-08-11T01:22:55.958Z,13.96
2018-08-11T01:25:24.856Z,13.95
2018-08-11T01:27:53.408Z,13.94
2018-08-11T01:30:22.820Z,13.96
2018-08-11T01:32:51.374Z,14.17
2018-08-11T01:35:19.997Z,14.03
2018-08-11T01:37:48.579Z,14.29
2018-08-11T01:40:17.739Z,14.35
2018-08-11T01:42:47.413Z,14.01
2018-08-11T01:45:16.613Z,14.11
2018-08-11T01:47:45.484Z,14.01
2018-08-11T01:50:15.184Z,14.15
2018-08-11T01:52:45.081Z,14.07
2018-08-11T01:55:15.249Z,14.03
2018-08-11T01:57:43.953Z,14.01
2018-08-11T02:00:14.048Z,13.84
2018-08-11T02:02:42.755Z,14.06
2018-08-11T02:05:12.344Z,14.09
2018-08-11T02:07:42.084Z,14.03
2018-08-11T02:10:15.701Z,13.84
2018-08-11T02:12:44.683Z,13.76
2018-08-11T02:15:14.053Z,14.02
2018-08-11T02:17:42.612Z,13.95
2018-08-11T02:20:13.503Z,14.11
2018-08-11T02:22:43.115Z,14.00
2018-08-11T02:25:11.720Z,13.76
2018-08-11T02:27:40.489Z,13.72
2018-08-11T02:30:11.261Z,13.84
2018-08-11T02:32:40.004Z,13.96
2018-08-11T02:35:09.164Z,13.83
2018-08-11T02:37:37.716Z,13.74
2018-08-11T02:40:07.456Z,13.58
2018-08-11T02:42:36.277Z,13.64
2018-08-11T02:45:05.393Z,13.63
2018-08-11T02:47:34.128Z,13.74
2018-08-11T02:50:02.705Z,13.40
2018-08-11T02:52:31.272Z,13.61
2018-08-11T02:55:00.165Z,13.64
2018-08-11T02:57:28.805Z,13.73
2018-08-11T02:59:57.324Z,13.88
2018-08-11T03:02:25.956Z,13.81
2018-08-11T03:04:55.200Z,13.61
2018-08-11T03:07:23.773Z,13.72
2018-08-11T03:09:52.321Z,13.76
2018-08-11T03:12:20.872Z,13.72
2018-08-11T03:14:49.395Z,13.57
2018-08-11T03:17:17.989Z,13.66
2018-08-11T03:19:46.568Z,13.58
2018-08-11T03:22:15.164Z,13.55
2018-08-11T03:24:43.693Z,13.76
2018-08-11T03:27:12.237Z,13.79
2018-08-11T03:29:40.766Z,13.79
2018-08-11T03:32:09.359Z,13.77
2018-08-11T03:34:44.377Z,13.84
2018-08-11T03:37:12.944Z,13.79
2018-08-11T03:39:41.461Z,14.03
2018-08-11T03:42:10.051Z,13.87
2018-08-11T03:44:38.572Z,13.98
2018-08-11T03:47:07.160Z,13.93
2018-08-11T03:49:35.688Z,13.81
2018-08-11T03:52:04.280Z,13.75
2018-08-11T03:54:32.825Z,13.95
2018-08-11T03:57:01.416Z,13.94
2018-08-11T03:59:29.928Z,13.99
2018-08-11T04:01:58.484Z,14.13
2018-08-11T04:04:27.036Z,14.03
2018-08-11T04:06:55.730Z,14.01
2018-08-11T04:09:24.289Z,14.25
2018-08-11T04:11:52.809Z,14.39
2018-08-11T04:14:21.356Z,14.19
2018-08-11T04:16:49.877Z,14.21
2018-08-11T04:19:18.444Z,14.02
2018-08-11T04:21:47.160Z,14.29
2018-08-11T04:24:15.734Z,14.17
2018-08-11T04:26:44.263Z,14.35
2018-08-11T04:29:12.904Z,14.65
2018-08-11T04:31:41.421Z,14.44
2018-08-11T04:34:09.986Z,14.38
2018-08-11T04:36:38.512Z,14.54
2018-08-11T04:39:08.677Z,14.45
2018-08-11T04:41:37.876Z,14.30
2018-08-11T04:44:06.449Z,14.30
2018-08-11T04:46:34.975Z,14.52
2018-08-11T04:49:03.564Z,14.77
2018-08-11T04:51:32.098Z,14.69
2018-08-11T04:54:01.015Z,14.72
2018-08-11T04:56:29.559Z,14.45
2018-08-11T04:58:58.177Z,14.45
2018-08-11T05:01:26.708Z,14.46
2018-08-11T05:03:55.940Z,14.34
2018-08-11T05:06:24.480Z,14.67
2018-08-11T05:08:53.033Z,14.76
2018-08-11T05:11:21.611Z,14.72
2018-08-11T05:13:50.280Z,14.91
2018-08-11T05:16:18.805Z,15.07
2018-08-11T05:18:47.341Z,14.93
2018-08-11T05:21:15.869Z,14.98
2018-08-11T05:23:44.401Z,15.25
2018-08-11T05:26:12.963Z,15.20
2018-08-11T05:28:41.815Z,15.30
2018-08-11T05:31:10.328Z,14.94
2018-08-11T05:33:38.899Z,15.04
2018-08-11T05:36:07.964Z,15.18
2018-08-11T05:38:36.856Z,15.33
2018-08-11T05:41:05.443Z,15.46
2018-08-11T05:43:34.198Z,15.50
2018-08-11T05:46:02.820Z,15.78
2018-08-11T05:48:31.400Z,15.69
2018-08-11T05:50:59.916Z,15.83
2018-08-11T05:53:35.438Z,15.80
2018-08-11T05:56:04.230Z,15.91
2018-08-11T05:58:32.781Z,15.70
2018-08-11T06:01:01.336Z,15.92
2018-08-11T06:03:29.848Z,15.93
2018-08-11T06:05:58.385Z,15.93
2018-08-11T06:08:26.899Z,16.08
2018-08-11T06:10:56.169Z,16.13
2018-08-11T06:13:24.694Z,16.25
2018-08-11T06:15:53.244Z,16.28
2018-08-11T06:18:21.755Z,16.49
2018-08-11T06:20:50.292Z,16.31
2018-08-11T06:23:18.828Z,16.38
2018-08-11T06:25:47.727Z,16.44
2018-08-11T06:28:16.261Z,16.63
2018-08-11T06:30:45.096Z,16.57
2018-08-11T06:33:13.625Z,16.40
2018-08-11T06:35:42.542Z,16.34
2018-08-11T06:38:11.830Z,16.43
2018-08-11T06:40:40.512Z,16.36
2018-08-11T06:43:08.997Z,16.60
2018-08-11T06:45:37.672Z,16.63
2018-08-11T06:48:06.898Z,16.60
2018-08-11T06:50:35.484Z,16.44
2018-08-11T06:53:04.048Z,16.60
2018-08-11T06:55:32.953Z,16.77
2018-08-11T06:58:01.598Z,16.66
2018-08-11T07:00:31.888Z,17.02
2018-08-11T07:03:04.171Z,16.96
2018-08-11T07:05:34.618Z,16.70
2018-08-11T07:08:03.207Z,16.86
2018-08-11T07:10:31.740Z,16.70
2018-08-11T07:13:00.288Z,16.75
2018-08-11T07:15:28.861Z,16.74
2018-08-11T07:17:57.673Z,16.67
2018-08-11T07:20:26.304Z,16.54
2018-08-11T07:22:54.792Z,16.66
2018-08-11T07:25:23.347Z,16.65
2018-08-11T07:27:51.848Z,16.72
2018-08-11T07:30:20.459Z,16.69
2018-08-11T07:32:48.941Z,16.97
2018-08-11T07:35:17.539Z,17.21
2018-08-11T07:37:46.085Z,17.23
2018-08-11T07:40:14.643Z,17.23
2018-08-11T07:42:43.197Z,17.35
2018-08-11T07:45:11.739Z,17.39
2018-08-11T07:47:40.453Z,17.34
2018-08-11T07:50:09.027Z,17.57
2018-08-11T07:52:37.908Z,17.64
2018-08-11T07:55:06.732Z,17.53
2018-08-11T07:57:35.338Z,17.81
2018-08-11T08:00:03.936Z,17.86
2018-08-11T08:02:32.484Z,17.85
2018-08-11T08:05:03.961Z,17.94
2018-08-11T08:07:32.525Z,18.15
2018-08-11T08:10:01.146Z,18.72
2018-08-11T08:12:29.903Z,18.28
2018-08-11T08:14:59.100Z,18.39
2018-08-11T08:17:28.132Z,18.05
2018-08-11T08:19:57.708Z,18.14
2018-08-11T08:22:27.613Z,18.23
2018-08-11T08:24:56.162Z,18.26
2018-08-11T08:27:24.881Z,18.40
2018-08-11T08:29:54.241Z,18.45
2018-08-11T08:32:23.065Z,18.88
2018-08-11T08:34:51.608Z,18.35
2018-08-11T08:37:20.181Z,18.16
2018-08-11T08:39:49.324Z,18.31
2018-08-11T08:42:17.990Z,18.57
2018-08-11T08:44:46.513Z,18.81
2018-08-11T08:47:15.581Z,18.97
2018-08-11T08:49:44.105Z,19.26
2018-08-11T08:52:12.701Z,18.76
2018-08-11T08:54:41.222Z,19.33
2018-08-11T08:57:09.778Z,19.26
2018-08-11T08:59:39.928Z,19.39
2018-08-11T09:02:08.556Z,18.98
2018-08-11T09:04:37.051Z,19.05
2018-08-11T09:07:05.614Z,19.40
2018-08-11T09:09:34.116Z,19.51
2018-08-11T09:12:02.709Z,19.22
2018-08-11T09:14:31.202Z,19.88
2018-08-11T09:16:59.757Z,19.70
2018-08-11T09:19:28.285Z,19.74
2018-08-11T09:21:56.840Z,19.43
2018-08-11T09:24:25.365Z,19.07
2018-08-11T09:26:53.883Z,18.96
2018-08-11T09:29:22.441Z,19.11
2018-08-11T09:31:50.992Z,19.23
2018-08-11T09:34:19.548Z,19.53
2018-08-11T09:36:48.064Z,19.29
2018-08-11T09:39:16.688Z,19.58
2018-08-11T09:41:45.775Z,19.20
2018-08-11T09:44:14.585Z,19.66
2018-08-11T09:46:43.203Z,20.16
2018-08-11T09:49:11.891Z,19.70
2018-08-11T09:51:40.447Z,20.47
2018-08-11T09:54:12.848Z,19.95
2018-08-11T09:56:41.684Z,19.82
2018-08-11T09:59:10.277Z,20.45
2018-08-11T10:01:43.060Z,20.11
2018-08-11T10:04:11.611Z,19.91
2018-08-11T10:06:40.392Z,20.02
2018-08-11T10:09:11.052Z,20.26
2018-08-11T10:11:39.705Z,20.70
2018-08-11T10:14:08.965Z,20.54
2018-08-11T10:16:47.676Z,20.45
2018-08-11T10:19:16.670Z,20.53
2018-08-11T10:21:45.184Z,20.49
2018-08-11T10:24:13.721Z,20.35
2018-08-11T10:26:42.309Z,20.67
2018-08-11T10:29:10.841Z,20.56
2018-08-11T10:31:39.392Z,20.73
2018-08-11T10:34:09.418Z,20.88
2018-08-11T10:36:38.049Z,20.80
2018-08-11T10:39:09.815Z,20.18
2018-08-11T10:41:38.393Z,20.03
2018-08-11T10:44:07.008Z,20.94
2018-08-11T10:46:35.543Z,21.42
2018-08-11T10:49:04.672Z,21.37
2018-08-11T10:51:33.184Z,20.88
2018-08-11T10:54:02.000Z,20.16
2018-08-11T10:56:31.738Z,20.70
2018-08-11T10:59:01.609Z,20.83
2018-08-11T11:01:30.336Z,20.81
2018-08-11T11:04:00.267Z,20.97
2018-08-11T11:06:30.388Z,21.45
2018-08-11T11:08:59.055Z,21.07
2018-08-11T11:11:27.697Z,20.72
2018-08-11T11:13:56.633Z,20.27
2018-08-11T11:16:35.323Z,20.60
2018-08-11T11:19:04.100Z,20.66
2018-08-11T11:21:32.736Z,20.55
2018-08-11T11:24:06.217Z,20.38
2018-08-11T11:26:34.884Z,20.49
2018-08-11T11:29:03.459Z,20.64
2018-08-11T11:31:34.572Z,21.32
2018-08-11T11:34:04.162Z,21.18
2018-08-11T11:36:35.605Z,20.89
2018-08-11T11:39:13.592Z,21.41
2018-08-11T11:41:42.386Z,21.45
2018-08-11T11:44:10.911Z,21.58
2018-08-11T11:46:39.461Z,21.71
2018-08-11T11:49:08.017Z,22.41
2018-08-11T11:51:36.583Z,22.22
2018-08-11T11:54:05.121Z,21.90
2018-08-11T11:56:34.927Z,22.56
2018-08-11T11:59:03.512Z,21.72
2018-08-11T12:01:32.086Z,22.17
2018-08-11T12:04:01.609Z,22.08
2018-08-11T12:06:30.176Z,22.05
2018-08-11T12:08:58.729Z,21.77
2018-08-11T12:11:27.252Z,21.66
2018-08-11T12:13:55.823Z,21.13
2018-08-11T12:16:24.369Z,21.10
2018-08-11T12:18:53.056Z,21.49
2018-08-11T12:21:21.580Z,21.52
2018-08-11T12:23:54.649Z,22.03
2018-08-11T12:26:23.205Z,22.43
2018-08-11T12:28:56.638Z,21.71
2018-08-11T12:31:25.250Z,21.18
2018-08-11T12:34:00.178Z,21.26
2018-08-11T12:36:29.058Z,21.48
2018-08-11T12:38:57.633Z,21.68
2018-08-11T12:41:26.165Z,21.45
2018-08-11T12:43:54.829Z,21.13
2018-08-11T12:46:26.172Z,21.06
2018-08-11T12:48:54.864Z,22.12
2018-08-11T12:51:23.405Z,22.54
2018-08-11T12:53:51.976Z,21.94
2018-08-11T12:56:20.802Z,22.40
2018-08-11T12:58:49.388Z,22.31
2018-08-11T13:01:17.969Z,22.45
2018-08-11T13:03:46.701Z,22.56
2018-08-11T13:06:15.593Z,22.56
2018-08-11T13:08:44.192Z,22.73
2018-08-11T13:11:13.736Z,22.39
2018-08-11T13:13:42.488Z,22.67
2018-08-11T13:16:12.252Z,22.74
2018-08-11T13:18:41.242Z,23.06
2018-08-11T13:21:09.856Z,22.71
2018-08-11T13:23:39.610Z,23.08
2018-08-11T13:26:08.241Z,23.03
2018-08-11T13:28:36.793Z,22.55
2018-08-11T13:31:05.439Z,22.54
2018-08-11T13:33:34.000Z,21.98
2018-08-11T13:36:03.332Z,22.07
2018-08-11T13:38:32.702Z,22.76
2018-08-11T13:41:02.702Z,22.49
2018-08-11T13:43:32.305Z,22.22
2018-08-11T13:46:01.720Z,22.06
2018-08-11T13:48:30.340Z,22.45
2018-08-11T13:51:00.010Z,23.08
2018-08-11T13:53:28.570Z,22.74
2018-08-11T13:55:57.385Z,22.65
2018-08-11T13:58:26.513Z,23.00
2018-08-11T14:00:55.113Z,22.97
2018-08-11T14:03:25.834Z,22.61
2018-08-11T14:06:01.585Z,22.74
2018-08-11T14:08:34.769Z,22.76
2018-08-11T14:11:09.820Z,23.39
2018-08-11T14:13:43.422Z,23.37
2018-08-11T14:16:16.207Z,23.30
2018-08-11T14:18:49.930Z,23.11
2018-08-11T14:21:25.523Z,23.55
2018-08-11T14:24:03.596Z,23.34
2018-08-11T14:26:40.358Z,23.65
2018-08-11T14:29:15.334Z,23.45
2018-08-11T14:31:46.926Z,23.30
2018-08-11T14:34:22.164Z,23.29
2018-08-11T14:36:58.226Z,23.11
2018-08-11T14:39:32.940Z,23.16
2018-08-11T14:42:08.082Z,22.83
2018-08-11T14:44:46.328Z,23.17
2018-08-11T14:47:24.197Z,22.87
2018-08-11T14:50:04.453Z,22.95
2018-08-11T14:52:40.610Z,23.41
2018-08-11T14:55:21.577Z,23.67
2018-08-11T14:57:58.143Z,23.14
2018-08-11T15:00:41.070Z,22.79
2018-08-11T15:03:23.591Z,22.80
2018-08-11T15:06:05.283Z,22.80
2018-08-11T15:08:44.757Z,23.23
2018-08-11T15:11:31.231Z,22.66
2018-08-11T15:14:17.687Z,23.04
2018-08-11T15:16:50.689Z,22.70
2018-08-11T15:19:30.418Z,22.67
2018-08-11T15:22:06.234Z,22.65
2018-08-11T15:24:43.202Z,23.11
2018-08-11T15:27:18.773Z,22.65
2018-08-11T15:29:57.899Z,22.54
2018-08-11T15:32:35.823Z,22.41
2018-08-11T15:35:13.530Z,22.67
2018-08-11T15:37:53.507Z,22.86
2018-08-11T15:40:29.993Z,23.13
2018-08-11T15:43:05.893Z,23.41
2018-08-11T15:45:42.189Z,23.51
2018-08-11T15:48:17.853Z,23.45
2018-08-11T15:50:55.436Z,23.06
2018-08-11T15:53:31.409Z,23.55
2018-08-11T15:56:09.486Z,23.25
2018-08-11T15:58:46.542Z,23.01
2018-08-11T16:01:15.698Z,22.65
2018-08-11T16:03:44.265Z,22.54
2018-08-11T16:06:12.830Z,23.12
2018-08-11T16:08:52.270Z,23.11
2018-08-11T16:11:27.286Z,23.28
2018-08-11T16:14:04.384Z,23.55
2018-08-11T16:16:43.824Z,23.78
2018-08-11T16:19:26.883Z,23.64
2018-08-11T16:22:02.853Z,23.09
2018-08-11T16:24:44.591Z,22.73
2018-08-11T16:27:20.225Z,22.71
2018-08-11T16:29:59.627Z,22.66
2018-08-11T16:32:36.028Z,22.67
2018-08-11T16:35:11.125Z,22.73
2018-08-11T16:40:50.495Z,23.54
2018-08-11T16:43:27.048Z,23.48
2018-08-11T16:46:04.484Z,23.68
2018-08-11T16:48:43.583Z,23.86
2018-08-11T16:51:20.394Z,23.69
2018-08-11T16:53:59.335Z,23.40
2018-08-11T16:56:33.790Z,23.08
2018-08-11T16:59:07.708Z,22.84
2018-08-11T17:01:41.239Z,23.17
2018-08-11T17:04:17.963Z,23.08
2018-08-11T17:06:56.411Z,22.90
2018-08-11T17:09:35.513Z,23.27
2018-08-11T17:12:20.418Z,23.36
2018-08-11T17:14:58.945Z,23.37
2018-08-11T17:17:34.396Z,23.14
2018-08-11T17:20:15.513Z,23.10
2018-08-11T17:22:52.987Z,23.12
2018-08-11T17:25:29.514Z,23.06
2018-08-11T17:28:04.191Z,22.90
2018-08-11T17:30:45.606Z,22.82
2018-08-11T17:33:22.602Z,22.78
2018-08-11T17:35:57.387Z,22.57
2018-08-11T17:38:31.162Z,22.62
2018-08-11T17:41:09.810Z,22.90
2018-08-11T17:43:54.023Z,22.86
2018-08-11T17:46:37.602Z,23.01
2018-08-11T17:49:20.209Z,22.95
2018-08-11T17:51:59.285Z,22.95
2018-08-11T17:54:36.685Z,22.80
2018-08-11T17:57:12.506Z,22.85
2018-08-11T17:59:52.409Z,22.86
2018-08-11T18:02:34.051Z,22.88
2018-08-11T18:05:14.126Z,22.79
2018-08-11T18:07:48.241Z,22.64
2018-08-11T18:10:23.906Z,22.56
2018-08-11T18:13:08.334Z,22.66
2018-08-11T18:15:41.879Z,22.69
2018-08-11T18:18:21.833Z,22.78
2018-08-11T18:21:03.568Z,22.62
2018-08-11T18:23:46.414Z,22.35
2018-08-11T18:26:22.949Z,21.95
2018-08-11T18:28:58.271Z,22.12
2018-08-11T18:31:32.149Z,22.05
2018-08-11T18:34:00.688Z,21.80
2018-08-11T18:36:30.591Z,21.38
2018-08-11T18:39:04.722Z,21.55
2018-08-11T18:41:36.650Z,21.39
2018-08-11T18:44:10.370Z,21.23
2018-08-11T18:46:43.343Z,21.36
2018-08-11T18:49:17.464Z,21.15
2018-08-11T18:51:49.930Z,20.88
2018-08-11T18:54:23.762Z,20.76
2018-08-11T18:56:55.851Z,20.47
2018-08-11T18:59:28.684Z,20.63
2018-08-11T19:02:02.694Z,20.52
2018-08-11T19:04:35.918Z,20.33
2018-08-11T19:07:16.793Z,20.24
2018-08-11T19:09:50.226Z,20.14
2018-08-11T19:12:24.680Z,20.12
2018-08-11T19:14:53.349Z,19.96
2018-08-11T19:17:21.913Z,19.75
2018-08-11T19:19:50.482Z,19.75
2018-08-11T19:22:19.009Z,19.54
2018-08-11T19:24:47.580Z,19.19
2018-08-11T19:27:16.153Z,19.14
2018-08-11T19:29:51.498Z,18.55
2018-08-11T19:32:25.188Z,18.50
2018-08-11T19:35:00.733Z,18.22
2018-08-11T19:37:29.735Z,18.13
2018-08-11T19:40:00.186Z,17.97
2018-08-11T19:42:29.428Z,17.77
2018-08-11T19:44:57.988Z,17.70
2018-08-11T19:47:26.685Z,17.57
2018-08-11T19:49:55.321Z,17.46
2018-08-11T19:52:23.869Z,17.46
2018-08-11T19:54:52.452Z,17.57
2018-08-11T19:57:21.097Z,17.52
2018-08-11T19:59:49.697Z,17.09
2018-08-11T20:02:18.272Z,17.11
2018-08-11T20:04:46.864Z,17.20
2018-08-11T20:07:15.462Z,17.16
2018-08-11T20:09:44.041Z,17.17
2018-08-11T20:12:12.620Z,17.26
2018-08-11T20:14:41.433Z,17.03
2018-08-11T20:17:10.644Z,17.25
2018-08-11T20:19:39.638Z,17.31
2018-08-11T20:22:19.968Z,17.15
2018-08-11T20:24:48.768Z,16.70
2018-08-11T20:27:17.796Z,16.83
2018-08-11T20:29:46.592Z,16.95
2018-08-11T20:32:15.969Z,16.78
2018-08-11T20:34:44.753Z,16.41
2018-08-11T20:37:13.768Z,16.43
2018-08-11T20:39:42.978Z,16.75
2018-08-11T20:42:13.663Z,16.45
2018-08-11T20:44:42.268Z,16.43
2018-08-11T20:47:10.896Z,16.36
2018-08-11T20:49:39.491Z,16.22
2018-08-11T20:52:10.298Z,16.24
2018-08-11T20:54:42.881Z,16.20
2018-08-11T20:57:12.808Z,16.12
2018-08-11T20:59:41.351Z,16.20
2018-08-11T21:02:10.208Z,16.01
2018-08-11T21:04:38.929Z,16.01
2018-08-11T21:07:07.485Z,15.83
2018-08-11T21:09:39.685Z,15.35
2018-08-11T21:12:09.149Z,15.28
2018-08-11T21:14:37.752Z,15.41
2018-08-11T21:17:06.910Z,15.63
2018-08-11T21:19:35.458Z,15.61
2018-08-11T21:22:04.334Z,15.47
2018-08-11T21:24:32.886Z,15.50
2018-08-11T21:27:03.001Z,15.01
2018-08-11T21:29:31.636Z,15.46
2018-08-11T21:32:01.962Z,14.94
2018-08-11T21:34:30.559Z,14.74
2018-08-11T21:37:01.672Z,14.85
2018-08-11T21:39:30.204Z,14.85
2018-08-11T21:41:58.760Z,15.42
2018-08-11T21:44:27.304Z,15.73
2018-08-11T21:46:55.869Z,15.58
2018-08-11T21:49:24.455Z,15.09
2018-08-11T21:51:53.112Z,14.89
2018-08-11T21:54:21.677Z,15.36
2018-08-11T21:56:50.320Z,14.67
2018-08-11T21:59:18.903Z,14.49
2018-08-11T22:01:47.490Z,14.48
2018-08-11T22:04:16.048Z,14.64
2018-08-11T22:06:47.159Z,14.83
2018-08-11T22:09:15.980Z,15.25
2018-08-11T22:11:49.464Z,15.32
2018-08-11T22:14:17.972Z,15.33
2018-08-11T22:16:46.856Z,14.93
2018-08-11T22:19:18.701Z,15.18
2018-08-11T22:21:47.288Z,15.21
2018-08-11T22:24:20.343Z,14.94
2018-08-11T22:26:48.973Z,14.87
2018-08-11T22:29:17.625Z,14.65
2018-08-11T22:31:48.931Z,14.70
2018-08-11T22:34:18.669Z,14.67
2018-08-11T22:36:47.228Z,14.62
2018-08-11T22:39:15.773Z,14.42
2018-08-11T22:41:44.327Z,14.48
2018-08-11T22:44:13.096Z,13.92
2018-08-11T22:46:41.669Z,14.22
2018-08-11T22:49:11.485Z,14.38
2018-08-11T22:51:41.105Z,14.44
2018-08-11T22:54:09.664Z,14.28
2018-08-11T22:56:38.209Z,13.96
2018-08-11T22:59:06.841Z,14.01
2018-08-11T23:01:38.626Z,14.40
2018-08-11T23:04:07.224Z,14.50
2018-08-11T23:06:35.776Z,14.05
2018-08-11T23:09:06.191Z,14.37
2018-08-11T23:11:34.859Z,14.38
2018-08-11T23:14:04.569Z,14.49
2018-08-11T23:16:34.050Z,14.28
2018-08-11T23:19:02.700Z,14.19
2018-08-11T23:21:31.230Z,13.84
2018-08-11T23:23:59.909Z,13.97
2018-08-11T23:26:29.184Z,13.94
2018-08-11T23:28:57.801Z,14.01
2018-08-11T23:31:26.427Z,13.91
2018-08-11T23:33:54.984Z,14.13
2018-08-11T23:36:23.525Z,14.00
2018-08-11T23:38:52.093Z,14.15
2018-08-11T23:41:20.620Z,14.36
2018-08-11T23:43:49.197Z,14.22
2018-08-11T23:46:17.761Z,13.82
2018-08-11T23:48:46.364Z,13.82
2018-08-11T23:51:14.963Z,13.94
2018-08-11T23:53:43.591Z,13.89
2018-08-11T23:56:12.223Z,14.11
2018-08-11T23:58:41.514Z,13.84
